Time;durP1;ratioP1;P1;durP2;ratioP2;P2;SDS_P1;SDS_P2;PMS_P1;PMS_P2;Temp;Humidity;BMP_temperature;BMP_pressure;BME280_temperature;BME280_humidity;BME280_pressure;Samples;Min_cycle;Max_cycle;Signal;HPM_P1;HPM_P2
2020/12/28 00:00:24;;;;;;;23.83;11.70;;;;;;;10.66;100.00;99119.69;6194261;23;20029;-68
2020/12/28 00:02:50;;;;;;;29.80;11.15;;;;;;;10.66;100.00;99126.78;6194560;23;20012;-66
2020/12/28 00:05:15;;;;;;;24.08;11.68;;;;;;;10.65;100.00;99133.09;6194857;23;20005;-69
2020/12/28 00:07:41;;;;;;;25.17;11.25;;;;;;;10.69;100.00;99123.78;6196223;23;20286;-68
2020/12/28 00:10:11;;;;;;;25.42;11.82;;;;;;;10.64;100.00;99131.44;6194855;23;20004;-68
2020/12/28 00:12:46;;;;;;;24.65;12.23;;;;;;;10.61;100.00;99119.38;6196110;23;20024;-67
2020/12/28 00:15:20;;;;;;;29.90;14.45;;;;;;;10.70;100.00;99120.16;6196080;23;20345;-67
2020/12/28 00:17:47;;;;;;;23.65;12.38;;;;;;;10.70;100.00;99117.50;6196061;23;20024;-68
2020/12/28 00:20:13;;;;;;;34.20;11.77;;;;;;;10.74;100.00;99111.66;6195973;23;20008;-67
2020/12/28 00:22:39;;;;;;;26.33;12.70;;;;;;;10.76;100.00;99132.66;6196140;23;20012;-68
2020/12/28 00:25:05;;;;;;;29.65;13.25;;;;;;;10.85;100.00;99136.91;6196046;23;20001;-68
2020/12/28 00:27:30;;;;;;;26.58;12.95;;;;;;;10.83;100.00;99134.44;6196014;23;20001;-68
2020/12/28 00:29:56;;;;;;;25.88;12.93;;;;;;;10.79;100.00;99138.44;6195918;23;20061;-67
2020/12/28 00:32:21;;;;;;;29.00;12.68;;;;;;;10.73;100.00;99139.16;6195956;23;20008;-67
2020/12/28 00:34:47;;;;;;;32.20;16.08;;;;;;;10.76;100.00;99144.09;6195925;23;20060;-67
2020/12/28 00:37:12;;;;;;;38.28;20.05;;;;;;;10.69;100.00;99145.81;6196344;23;19997;-67
2020/12/28 00:39:37;;;;;;;46.22;21.42;;;;;;;10.62;100.00;99144.03;6196259;23;20183;-68
2020/12/28 00:42:03;;;;;;;35.40;19.15;;;;;;;10.57;99.79;99159.63;6195847;23;20250;-67
2020/12/28 00:44:28;;;;;;;37.63;19.52;;;;;;;10.51;99.60;99153.22;6196211;23;20008;-68
2020/12/28 00:46:53;;;;;;;39.60;19.98;;;;;;;10.49;99.39;99150.75;6195888;23;20039;-68
2020/12/28 00:49:19;;;;;;;37.50;19.63;;;;;;;10.58;98.81;99151.50;6196088;23;20009;-67
2020/12/28 00:51:44;;;;;;;40.70;20.08;;;;;;;10.73;98.73;99144.44;6196098;23;20188;-67
2020/12/28 00:54:10;;;;;;;48.10;23.58;;;;;;;10.71;97.62;99135.03;6196030;23;20330;-68
2020/12/28 00:56:35;;;;;;;45.10;23.60;;;;;;;10.61;96.64;99129.97;6195889;23;20025;-67
2020/12/28 00:59:01;;;;;;;46.65;22.42;;;;;;;10.66;97.09;99134.75;6195819;23;20019;-67
2020/12/28 01:01:26;;;;;;;49.53;25.33;;;;;;;10.71;95.24;99142.97;6195762;23;20013;-67
2020/12/28 01:03:51;;;;;;;51.60;25.60;;;;;;;10.55;95.91;99131.50;6195448;23;20016;-69
2020/12/28 01:06:17;;;;;;;56.13;28.40;;;;;;;10.62;95.70;99123.69;6195633;23;20001;-67
2020/12/28 01:08:42;;;;;;;67.07;31.63;;;;;;;10.45;95.66;99124.81;6195905;23;20033;-68
2020/12/28 01:11:08;;;;;;;83.38;35.17;;;;;;;10.58;94.79;99119.75;6195469;23;20005;-67
2020/12/28 01:13:33;;;;;;;82.60;38.90;;;;;;;10.40;93.79;99130.63;6195463;23;20039;-68
2020/12/28 01:15:58;;;;;;;85.93;40.72;;;;;;;10.53;94.22;99128.22;6195481;23;20052;-68
2020/12/28 01:18:24;;;;;;;82.50;39.90;;;;;;;10.61;92.01;99134.44;6195670;23;20068;-68
2020/12/28 01:20:49;;;;;;;90.75;40.78;;;;;;;10.37;93.97;99140.69;6195628;23;20005;-68
2020/12/28 01:23:15;;;;;;;80.60;38.17;;;;;;;10.32;94.47;99130.66;6195790;23;20006;-67
2020/12/28 01:25:40;;;;;;;87.68;38.30;;;;;;;10.25;94.19;99127.06;6195802;23;20334;-67
2020/12/28 01:28:05;;;;;;;81.32;36.15;;;;;;;10.01;95.48;99133.28;6195354;23;20005;-68
2020/12/28 01:30:31;;;;;;;83.10;38.50;;;;;;;10.22;94.98;99109.69;6193929;23;20184;-67
2020/12/28 01:32:56;;;;;;;76.35;36.10;;;;;;;10.17;93.99;99088.22;6195550;23;20282;-68
2020/12/28 01:35:22;;;;;;;106.32;44.72;;;;;;;9.97;94.15;99099.41;6195340;23;20011;-68
2020/12/28 01:37:47;;;;;;;89.03;39.00;;;;;;;10.04;94.24;99098.53;6195310;23;20279;-68
2020/12/28 01:40:14;;;;;;;83.85;37.50;;;;;;;10.11;94.14;99099.50;6195277;23;20056;-67
2020/12/28 01:42:39;;;;;;;71.45;31.85;;;;;;;9.97;94.03;99092.31;6195271;23;20021;-68
2020/12/28 01:45:05;;;;;;;65.38;30.38;;;;;;;10.33;92.55;99097.06;6195348;23;20016;-68
2020/12/28 01:47:31;;;;;;;74.35;32.35;;;;;;;10.12;91.54;99118.84;6193787;23;20009;-68
2020/12/28 01:49:56;;;;;;;70.78;33.03;;;;;;;9.89;92.80;99095.81;6195302;23;20267;-68
2020/12/28 01:52:22;;;;;;;77.57;34.10;;;;;;;10.07;92.52;99084.97;6195178;23;20341;-68
2020/12/28 01:54:48;;;;;;;67.07;30.40;;;;;;;10.33;89.84;99073.25;6195120;23;20089;-68
2020/12/28 01:57:14;;;;;;;70.43;33.17;;;;;;;10.18;88.79;99078.44;6195485;23;20001;-67
2020/12/28 01:59:40;;;;;;;66.95;30.92;;;;;;;9.95;90.40;99088.19;6195408;23;20044;-67
2020/12/28 02:02:09;;;;;;;72.22;33.38;;;;;;;10.01;89.53;99088.31;6195291;23;20008;-67
2020/12/28 02:04:34;;;;;;;80.47;35.05;;;;;;;9.89;90.99;99085.25;6194703;23;20017;-67
2020/12/28 02:07:01;;;;;;;86.45;37.67;;;;;;;9.86;91.39;99079.47;6195235;23;20290;-67
2020/12/28 02:09:27;;;;;;;71.10;33.63;;;;;;;9.82;91.92;99059.66;6195375;23;20085;-67
2020/12/28 02:11:54;;;;;;;78.53;34.65;;;;;;;9.78;92.83;99055.72;6195007;23;20203;-68
2020/12/28 02:14:19;;;;;;;78.15;33.75;;;;;;;9.86;92.65;99050.38;6195341;23;20013;-67
2020/12/28 02:16:45;;;;;;;77.05;35.38;;;;;;;9.78;93.25;99043.31;6195093;23;20282;-67
2020/12/28 02:19:10;;;;;;;75.93;33.83;;;;;;;9.80;92.80;99054.53;6195039;23;20199;-67
2020/12/28 02:21:37;;;;;;;323.90;42.88;;;;;;;10.06;89.93;99054.22;6195377;23;20056;-68
2020/12/28 02:24:03;;;;;;;238.68;35.92;;;;;;;9.85;88.10;99054.84;6193551;23;20231;-67
2020/12/28 02:26:28;;;;;;;133.18;34.80;;;;;;;9.46;89.69;99059.34;6193194;23;20001;-68
2020/12/28 02:28:53;;;;;;;82.40;32.63;;;;;;;9.28;91.98;99049.81;6194646;23;20060;-68
2020/12/28 02:31:19;;;;;;;85.63;34.58;;;;;;;9.16;92.27;99067.00;6194886;23;20310;-68
2020/12/28 02:33:44;;;;;;;68.82;31.35;;;;;;;9.48;90.95;99063.47;6195065;23;20040;-68
2020/12/28 02:36:10;;;;;;;104.90;31.38;;;;;;;9.40;90.99;99073.25;6195068;23;20021;-67
2020/12/28 02:38:36;;;;;;;156.13;32.20;;;;;;;9.50;90.75;99079.16;6194934;23;20013;-68
2020/12/28 02:41:06;;;;;;;184.68;32.45;;;;;;;9.53;90.02;99076.97;6194597;23;20198;-68
2020/12/28 02:43:31;;;;;;;225.88;31.73;;;;;;;9.56;89.22;99063.44;6194840;23;20191;-67
2020/12/28 02:45:57;;;;;;;342.05;33.72;;;;;;;9.59;88.96;99056.97;6194514;23;20001;-67
2020/12/28 02:48:24;;;;;;;569.15;40.65;;;;;;;9.69;86.84;99057.59;6194681;23;20057;-68
2020/12/28 02:50:50;;;;;;;406.83;36.45;;;;;;;9.56;86.30;99059.97;6194612;23;20012;-67
2020/12/28 02:53:15;;;;;;;401.95;35.75;;;;;;;9.38;87.61;99064.66;6194790;23;20242;-68
2020/12/28 02:55:41;;;;;;;268.65;28.27;;;;;;;9.20;88.24;99054.28;6194652;23;20007;-68
2020/12/28 02:58:06;;;;;;;280.42;28.17;;;;;;;8.97;89.33;99048.91;6193028;23;20036;-68
2020/12/28 03:00:32;;;;;;;219.90;27.65;;;;;;;8.94;89.17;99054.53;6194571;23;19996;-68
2020/12/28 03:02:57;;;;;;;129.55;25.63;;;;;;;9.11;89.33;99057.94;6194247;23;20227;-68
2020/12/28 03:05:23;;;;;;;117.18;23.15;;;;;;;9.03;88.95;99057.97;6194617;23;20045;-67
2020/12/28 03:07:48;;;;;;;217.90;24.80;;;;;;;9.10;88.57;99072.16;6194789;23;20009;-67
2020/12/28 03:10:13;;;;;;;198.00;26.60;;;;;;;9.08;86.09;99074.13;6192964;23;20024;-67
2020/12/28 03:12:39;;;;;;;176.52;27.35;;;;;;;8.73;87.92;99075.34;6194421;23;20009;-67
2020/12/28 03:15:04;;;;;;;142.63;23.10;;;;;;;8.13;88.99;99041.31;6194522;23;20340;-68
2020/12/28 03:17:30;;;;;;;125.88;23.35;;;;;;;8.21;91.45;99080.88;6194392;23;20001;-67
2020/12/28 03:19:55;;;;;;;154.07;27.60;;;;;;;8.36;92.06;99076.66;6194399;23;20001;-67
2020/12/28 03:22:20;;;;;;;85.53;19.90;;;;;;;8.14;91.48;99069.34;6194455;23;20050;-67
2020/12/28 03:24:46;;;;;;;69.57;16.92;;;;;;;7.92;91.41;99066.34;6194409;23;19997;-68
2020/12/28 03:27:11;;;;;;;59.03;17.73;;;;;;;7.92;92.06;99076.88;6194662;23;20021;-68
2020/12/28 03:29:37;;;;;;;104.85;20.13;;;;;;;7.92;92.23;99081.31;6194797;23;20254;-68
2020/12/28 03:32:04;;;;;;;150.82;20.55;;;;;;;7.89;91.59;99086.91;6194617;23;20035;-67
2020/12/28 03:34:29;;;;;;;127.30;19.73;;;;;;;7.75;94.05;99098.91;6194757;23;20009;-67
2020/12/28 03:36:55;;;;;;;128.18;20.58;;;;;;;7.82;95.26;99092.00;6195083;23;20101;-68
2020/12/28 03:39:20;;;;;;;136.18;21.60;;;;;;;7.99;95.29;99096.34;6194864;23;20015;-67
2020/12/28 03:41:46;;;;;;;101.13;19.58;;;;;;;8.04;94.11;99102.94;6196498;23;20172;-68
2020/12/28 03:44:11;;;;;;;120.38;23.67;;;;;;;7.88;94.74;99091.38;6196654;23;20005;-67
2020/12/28 03:46:37;;;;;;;93.00;23.55;;;;;;;8.16;93.45;99099.84;6196566;23;19997;-67
2020/12/28 03:49:03;;;;;;;115.32;22.95;;;;;;;8.26;93.57;99102.31;6196701;23;20271;-69
2020/12/28 03:51:28;;;;;;;133.45;23.73;;;;;;;8.34;92.14;99101.56;6196397;23;20009;-67
2020/12/28 03:53:54;;;;;;;127.43;22.75;;;;;;;8.52;92.66;99105.69;6196759;23;20024;-67
2020/12/28 03:56:20;;;;;;;100.88;22.38;;;;;;;8.51;92.93;99105.88;6196387;23;20194;-68
2020/12/28 03:58:45;;;;;;;231.73;30.50;;;;;;;8.41;93.85;99092.00;6196287;23;20009;-67
2020/12/28 04:01:11;;;;;;;140.02;26.67;;;;;;;8.56;93.23;99096.47;6196206;23;20001;-68
2020/12/28 04:03:37;;;;;;;251.05;30.05;;;;;;;8.66;93.16;99096.31;6195979;23;20307;-68
2020/12/28 04:06:04;;;;;;;253.05;29.38;;;;;;;8.79;92.14;99099.25;6196103;23;20003;-68
2020/12/28 04:08:30;;;;;;;244.70;28.30;;;;;;;8.95;91.06;99093.97;6196491;23;20012;-68
2020/12/28 04:10:55;;;;;;;227.65;27.48;;;;;;;8.81;91.91;99080.63;6196009;23;20136;-69
2020/12/28 04:13:20;;;;;;;210.70;29.00;;;;;;;8.79;92.33;99083.41;6196199;23;20028;-68
2020/12/28 04:15:46;;;;;;;343.70;53.22;;;;;;;8.75;93.12;99102.41;6194610;23;20023;-68
2020/12/28 04:18:11;;;;;;;346.13;57.92;;;;;;;8.76;93.72;99098.75;6196034;23;20001;-67
2020/12/28 04:20:37;;;;;;;375.05;54.47;;;;;;;8.92;93.56;99104.84;6196071;23;20017;-67
2020/12/28 04:23:02;;;;;;;229.35;41.97;;;;;;;8.89;93.52;99107.81;6196194;23;20012;-68
2020/12/28 04:25:28;;;;;;;208.77;39.20;;;;;;;8.77;93.65;99117.06;6196003;23;20000;-68
2020/12/28 04:27:53;;;;;;;265.20;48.60;;;;;;;8.74;94.76;99106.03;6196079;23;20310;-68
2020/12/28 04:30:19;;;;;;;282.60;47.72;;;;;;;8.68;94.85;99102.25;6196137;23;20004;-68
2020/12/28 04:32:44;;;;;;;265.33;45.97;;;;;;;8.57;95.59;99111.31;6195958;23;20053;-68
2020/12/28 04:35:09;;;;;;;259.95;44.30;;;;;;;8.61;96.74;99117.91;6195863;23;20020;-68
2020/12/28 04:37:35;;;;;;;288.20;47.15;;;;;;;8.75;96.04;99097.13;6196020;23;20226;-68
2020/12/28 04:40:01;;;;;;;209.15;43.13;;;;;;;8.68;96.20;99099.59;6195579;23;20035;-68
2020/12/28 04:42:28;;;;;;;254.80;43.70;;;;;;;8.62;96.13;99116.09;6195726;23;20183;-67
2020/12/28 04:44:54;;;;;;;257.80;44.13;;;;;;;8.66;97.20;99116.59;6195747;23;19997;-67
2020/12/28 04:47:19;;;;;;;222.88;42.83;;;;;;;8.70;96.60;99113.44;6195534;23;20105;-68
2020/12/28 04:49:46;;;;;;;166.40;41.47;;;;;;;8.87;95.53;99117.72;6195281;23;20157;-67
2020/12/28 04:52:13;;;;;;;210.77;42.83;;;;;;;8.80;96.13;99126.47;6195814;23;20005;-68
2020/12/28 04:54:39;;;;;;;200.60;40.85;;;;;;;9.01;95.55;99121.50;6196165;23;20011;-68
2020/12/28 04:57:07;;;;;;;239.52;44.28;;;;;;;9.11;93.50;99131.91;6196165;23;20286;-68
2020/12/28 04:59:32;;;;;;;151.13;40.50;;;;;;;8.87;95.18;99130.09;6195764;23;20031;-68
2020/12/28 05:01:58;;;;;;;195.57;42.22;;;;;;;8.99;95.08;99122.66;6195770;23;20021;-67
2020/12/28 05:04:23;;;;;;;170.90;33.85;;;;;;;8.94;94.09;99123.16;6195222;23;20237;-68
2020/12/28 05:07:06;;;;;;;176.32;33.55;;;;;;;8.80;94.81;99127.31;6196177;23;19997;-68
2020/12/28 05:09:33;;;;;;;83.28;30.20;;;;;;;8.80;94.75;99142.31;6196027;23;20004;-68
2020/12/28 05:12:02;;;;;;;119.32;31.35;;;;;;;8.72;95.95;99164.25;6195600;23;20004;-67
2020/12/28 05:14:28;;;;;;;76.05;28.77;;;;;;;8.72;96.46;99176.63;6195809;23;20016;-67
2020/12/28 05:17:04;;;;;;;192.98;33.92;;;;;;;8.78;96.98;99179.44;6195876;23;20001;-68
2020/12/28 05:19:30;;;;;;;187.88;36.45;;;;;;;8.80;96.97;99179.28;6195776;23;20032;-67
2020/12/28 05:21:56;;;;;;;241.00;39.92;;;;;;;8.91;96.45;99174.50;6195591;23;20302;-69
2020/12/28 05:24:22;;;;;;;145.80;38.17;;;;;;;8.91;96.46;99177.13;6195831;23;20005;-69
2020/12/28 05:26:48;;;;;;;274.40;45.85;;;;;;;9.01;95.50;99186.69;6195477;23;19997;-67
2020/12/28 05:29:20;;;;;;;233.30;49.20;;;;;;;8.91;96.25;99186.88;6195573;23;20032;-68
2020/12/28 05:31:47;;;;;;;180.73;47.67;;;;;;;9.00;96.23;99179.78;6195509;23;19997;-67
2020/12/28 05:34:21;;;;;;;199.38;47.22;;;;;;;9.04;95.67;99167.88;6195657;23;20207;-68
2020/12/28 05:36:49;;;;;;;133.35;31.42;;;;;;;8.92;95.71;99173.50;6195615;23;19997;-67
2020/12/28 05:39:19;;;;;;;168.35;37.90;;;;;;;9.05;95.83;99180.09;6195475;23;20012;-69
2020/12/28 05:41:54;;;;;;;207.48;49.13;;;;;;;9.23;94.32;99178.09;6195343;23;20003;-67
2020/12/28 05:44:23;;;;;;;229.85;57.47;;;;;;;9.35;92.50;99183.88;6195486;23;20286;-67
2020/12/28 05:46:59;;;;;;;229.38;50.17;;;;;;;9.16;93.83;99195.59;6195284;23;20048;-67
2020/12/28 05:49:31;;;;;;;209.25;51.90;;;;;;;8.85;95.51;99206.00;6195472;23;20005;-67
2020/12/28 05:51:58;;;;;;;231.95;56.40;;;;;;;9.07;96.13;99215.09;6195321;23;19997;-67
2020/12/28 05:54:27;;;;;;;133.50;52.35;;;;;;;9.11;95.94;99205.84;6195517;23;20011;-68
2020/12/28 05:56:53;;;;;;;281.02;61.00;;;;;;;9.15;96.16;99208.00;6195921;23;20187;-68
2020/12/28 05:59:20;;;;;;;204.63;63.95;;;;;;;9.03;96.53;99208.50;6195123;23;20108;-67
2020/12/28 06:01:47;;;;;;;340.02;74.10;;;;;;;8.94;96.69;99205.03;6195129;23;20338;-68
2020/12/28 06:04:15;;;;;;;155.15;49.42;;;;;;;9.16;95.79;99195.59;6194860;23;20064;-67
2020/12/28 06:06:42;;;;;;;228.70;47.58;;;;;;;8.83;96.35;99211.44;6195112;23;20001;-68
2020/12/28 06:09:07;;;;;;;243.15;46.08;;;;;;;8.71;97.37;99204.84;6195429;23;20012;-67
2020/12/28 06:11:34;;;;;;;287.67;52.38;;;;;;;8.58;98.81;99197.41;6194988;23;19997;-67
2020/12/28 06:13:59;;;;;;;191.80;44.45;;;;;;;8.68;98.98;99205.16;6195153;23;20097;-69
2020/12/28 06:16:25;;;;;;;266.15;48.50;;;;;;;8.75;98.90;99203.53;6195219;23;20056;-67
2020/12/28 06:18:54;;;;;;;218.25;46.78;;;;;;;8.80;98.43;99209.16;6194654;23;20009;-68
2020/12/28 06:21:19;;;;;;;232.80;47.58;;;;;;;8.74;98.79;99204.50;6194841;23;19997;-67
2020/12/28 06:23:49;;;;;;;228.40;48.72;;;;;;;8.77;98.58;99206.81;6195144;23;20252;-67
2020/12/28 06:26:19;;;;;;;231.80;49.08;;;;;;;8.67;99.87;99211.44;6195109;23;19997;-67
2020/12/28 06:28:44;;;;;;;345.42;58.97;;;;;;;8.79;99.78;99202.22;6193281;23;20005;-67
2020/12/28 06:31:10;;;;;;;409.63;58.42;;;;;;;8.87;99.35;99201.38;6194767;23;20234;-69
2020/12/28 06:33:46;;;;;;;256.25;49.03;;;;;;;9.02;98.63;99204.19;6195152;23;20028;-68
2020/12/28 06:36:16;;;;;;;151.57;44.70;;;;;;;9.10;98.60;99212.13;6194748;23;20000;-68
2020/12/28 06:38:43;;;;;;;266.10;55.78;;;;;;;9.11;98.65;99221.69;6195024;23;20056;-67
2020/12/28 06:41:08;;;;;;;769.95;158.18;;;;;;;9.00;98.77;99208.81;6194469;23;20004;-68
2020/12/28 06:43:39;;;;;;;344.33;101.43;;;;;;;8.97;99.30;99199.41;6194935;23;20005;-67
2020/12/28 06:46:05;;;;;;;361.00;70.70;;;;;;;9.05;99.46;99215.25;6194931;23;20183;-68
2020/12/28 06:48:30;;;;;;;357.35;60.35;;;;;;;9.26;98.33;99234.06;6193190;23;20005;-67
2020/12/28 06:51:05;;;;;;;255.27;59.28;;;;;;;9.08;99.87;99245.78;6193235;23;20191;-68
2020/12/28 06:53:31;;;;;;;358.52;71.18;;;;;;;9.13;100.00;99241.66;6194915;23;20012;-67
2020/12/28 06:56:09;;;;;;;539.97;94.03;;;;;;;9.04;100.00;99232.09;6194949;23;20048;-67
2020/12/28 06:58:35;;;;;;;337.15;71.40;;;;;;;9.35;100.00;99226.13;6194699;23;20009;-67
2020/12/28 07:01:05;;;;;;;259.30;61.90;;;;;;;9.82;96.80;99224.41;6194613;23;20176;-68
2020/12/28 07:03:31;;;;;;;346.80;62.72;;;;;;;9.58;97.94;99227.13;6192870;23;20075;-67
2020/12/28 07:05:59;;;;;;;425.75;62.67;;;;;;;9.44;98.99;99225.16;6194494;23;20194;-68
2020/12/28 07:08:25;;;;;;;496.30;68.15;;;;;;;9.49;99.46;99236.06;6194764;23;20191;-68
2020/12/28 07:11:02;;;;;;;590.97;74.05;;;;;;;9.55;99.66;99227.47;6194343;23;20039;-67
2020/12/28 07:13:29;;;;;;;332.35;60.35;;;;;;;9.59;99.83;99221.66;6194647;23;20087;-67
2020/12/28 07:16:07;;;;;;;222.65;49.25;;;;;;;9.77;99.69;99226.75;6194396;23;20012;-68
2020/12/28 07:18:34;;;;;;;347.00;52.33;;;;;;;9.82;98.85;99234.19;6194634;23;20150;-67
2020/12/28 07:21:01;;;;;;;350.05;50.72;;;;;;;9.64;99.46;99241.50;6194480;23;20001;-68
2020/12/28 07:23:28;;;;;;;396.15;53.85;;;;;;;9.63;99.68;99243.31;6194605;23;20012;-68
2020/12/28 07:26:06;;;;;;;161.52;45.90;;;;;;;9.77;99.67;99233.84;6194466;23;20291;-68
2020/12/28 07:28:34;;;;;;;132.25;41.13;;;;;;;9.85;98.52;99239.13;6194578;23;20001;-67
2020/12/28 07:31:01;;;;;;;215.05;50.67;;;;;;;9.87;99.09;99248.53;6194383;23;20009;-68
2020/12/28 07:33:28;;;;;;;137.43;43.10;;;;;;;9.81;99.86;99251.03;6194556;23;20055;-68
2020/12/28 07:36:08;;;;;;;287.42;59.05;;;;;;;9.97;99.17;99242.22;6194432;23;20005;-67
2020/12/28 07:38:33;;;;;;;138.13;34.88;;;;;;;10.19;97.71;99237.03;6194635;23;20009;-68
2020/12/28 07:40:59;;;;;;;149.88;34.05;;;;;;;10.08;97.72;99232.09;6194191;23;20020;-67
2020/12/28 07:43:27;;;;;;;240.45;41.88;;;;;;;9.99;99.19;99240.25;6194465;23;20005;-67
2020/12/28 07:45:53;;;;;;;186.55;33.40;;;;;;;10.06;99.36;99249.97;6194227;23;20016;-68
2020/12/28 07:48:20;;;;;;;163.63;32.78;;;;;;;10.13;99.35;99256.22;6192722;23;20005;-68
2020/12/28 07:50:53;;;;;;;116.78;35.72;;;;;;;10.26;98.33;99254.88;6194303;23;20024;-68
2020/12/28 07:53:25;;;;;;;128.23;33.63;;;;;;;10.19;97.89;99262.66;6194367;23;20008;-67
2020/12/28 07:56:00;;;;;;;67.97;25.52;;;;;;;10.12;97.82;99259.03;6193154;23;20225;-68
2020/12/28 07:58:31;;;;;;;110.97;28.45;;;;;;;10.07;98.67;99259.56;6194128;23;20009;-67
2020/12/28 08:00:59;;;;;;;105.20;30.58;;;;;;;10.15;99.38;99245.47;6194827;23;20001;-68
2020/12/28 08:03:46;;;;;;;130.80;30.85;;;;;;;10.18;98.50;99243.31;6194019;23;20009;-68
2020/12/28 08:06:14;;;;;;;81.97;30.83;;;;;;;10.09;98.65;99254.09;6193015;23;20005;-67
2020/12/28 08:08:40;;;;;;;128.57;35.63;;;;;;;10.07;99.46;99259.56;6194433;23;20009;-68
2020/12/28 08:11:06;;;;;;;149.82;57.63;;;;;;;10.05;99.47;99255.44;6194099;23;20068;-68
2020/12/28 08:13:36;;;;;;;133.60;59.92;;;;;;;10.16;99.81;99258.53;6194747;23;20016;-67
2020/12/28 08:16:16;;;;;;;134.35;61.53;;;;;;;10.05;99.93;99269.47;6194224;23;20001;-67
2020/12/28 08:18:46;;;;;;;64.28;25.50;;;;;;;10.15;100.00;99278.03;6194401;23;20036;-67
2020/12/28 08:21:12;;;;;;;53.78;21.67;;;;;;;10.48;97.30;99272.69;6194510;23;20001;-68
2020/12/28 08:23:37;;;;;;;65.22;25.70;;;;;;;10.38;96.63;99269.38;6194750;23;20247;-68
2020/12/28 08:26:15;;;;;;;82.10;30.23;;;;;;;10.17;98.88;99272.59;6196434;23;20314;-67
2020/12/28 08:28:45;;;;;;;65.40;25.95;;;;;;;10.18;98.83;99267.13;6196205;23;20016;-69
2020/12/28 08:31:11;;;;;;;52.20;21.35;;;;;;;10.58;98.01;99275.13;6194629;23;20043;-67
2020/12/28 08:33:36;;;;;;;48.35;21.15;;;;;;;10.67;95.22;99266.13;6196275;23;20318;-68
2020/12/28 08:36:01;;;;;;;45.15;20.67;;;;;;;10.62;95.93;99265.81;6196058;23;20035;-68
2020/12/28 08:38:32;;;;;;;46.60;20.20;;;;;;;10.50;96.76;99255.63;6196129;23;20017;-69
2020/12/28 08:40:58;;;;;;;48.90;20.33;;;;;;;10.61;97.23;99265.00;6194375;23;20009;-68
2020/12/28 08:43:23;;;;;;;44.47;20.55;;;;;;;10.57;98.34;99268.16;6196070;23;20028;-68
2020/12/28 08:46:00;;;;;;;84.75;32.55;;;;;;;10.57;98.26;99270.81;6195804;23;20032;-67
2020/12/28 08:48:25;;;;;;;45.10;21.15;;;;;;;10.80;96.41;99264.56;6196145;23;20032;-67
2020/12/28 08:50:51;;;;;;;38.35;17.42;;;;;;;11.05;94.78;99261.75;6195885;23;20361;-68
2020/12/28 08:53:21;;;;;;;33.15;16.45;;;;;;;11.07;93.03;99257.09;6196025;23;20028;-67
2020/12/28 08:55:59;;;;;;;31.52;15.45;;;;;;;10.94;94.76;99252.38;6195886;23;20219;-68
2020/12/28 08:58:25;;;;;;;34.65;16.27;;;;;;;10.99;95.75;99250.03;6195819;23;20009;-68
2020/12/28 09:00:51;;;;;;;35.25;16.10;;;;;;;11.28;93.02;99243.19;6196140;23;20072;-68
2020/12/28 09:03:16;;;;;;;30.38;15.60;;;;;;;11.29;93.12;99234.22;6195476;23;20179;-67
2020/12/28 09:05:41;;;;;;;34.17;16.40;;;;;;;11.29;92.87;99235.03;6195681;23;20057;-67
2020/12/28 09:08:07;;;;;;;36.83;17.27;;;;;;;11.23;94.37;99238.41;6195780;23;20080;-67
2020/12/28 09:10:32;;;;;;;39.13;18.77;;;;;;;11.22;96.10;99238.59;6195568;23;20317;-67
2020/12/28 09:12:58;;;;;;;65.53;28.33;;;;;;;11.15;97.47;99241.94;6195664;23;20008;-67
2020/12/28 09:15:23;;;;;;;60.38;25.00;;;;;;;11.22;97.20;99236.75;6195457;23;20007;-69
2020/12/28 09:17:48;;;;;;;54.92;25.30;;;;;;;11.31;98.19;99233.03;6195623;23;20055;-69
2020/12/28 09:20:14;;;;;;;56.47;25.27;;;;;;;11.44;97.75;99225.34;6195389;23;20005;-68
2020/12/28 09:22:40;;;;;;;46.10;23.98;;;;;;;11.58;96.08;99230.84;6195662;23;20016;-67
2020/12/28 09:25:05;;;;;;;74.28;37.97;;;;;;;11.61;95.86;99239.25;6195478;23;20008;-69
2020/12/28 09:27:31;;;;;;;93.05;44.17;;;;;;;11.68;94.04;99242.00;6195322;23;20025;-68
2020/12/28 09:29:56;;;;;;;78.57;36.40;;;;;;;11.65;94.50;99234.41;6195469;23;20242;-68
2020/12/28 09:32:22;;;;;;;57.47;30.95;;;;;;;11.55;95.15;99223.25;6195361;23;20001;-69
2020/12/28 09:34:47;;;;;;;60.97;29.20;;;;;;;11.64;94.24;99209.72;6195217;23;20001;-67
2020/12/28 09:37:13;;;;;;;54.97;28.67;;;;;;;11.61;95.09;99209.25;6195440;23;20001;-68
2020/12/28 09:39:38;;;;;;;59.10;27.77;;;;;;;11.62;94.13;99202.94;6195712;23;20179;-67
2020/12/28 09:42:05;;;;;;;51.92;26.23;;;;;;;11.70;93.88;99210.81;6195680;23;20008;-67
2020/12/28 09:44:30;;;;;;;66.72;33.78;;;;;;;11.62;94.34;99209.06;6195670;23;20016;-67
2020/12/28 09:46:57;;;;;;;74.97;33.58;;;;;;;11.78;94.35;99208.13;6195338;23;20029;-67
2020/12/28 09:49:23;;;;;;;62.90;29.92;;;;;;;12.00;94.16;99198.41;6195587;23;20047;-68
2020/12/28 09:51:53;;;;;;;55.97;29.00;;;;;;;12.03;93.23;99198.03;6195494;23;20001;-68
2020/12/28 09:54:19;;;;;;;49.22;26.08;;;;;;;12.09;92.38;99206.09;6195445;23;20049;-67
2020/12/28 09:56:44;;;;;;;55.13;27.90;;;;;;;12.14;92.27;99203.69;6195288;23;20001;-67
2020/12/28 09:59:10;;;;;;;58.35;30.65;;;;;;;12.32;90.97;99203.31;6195365;23;20036;-68
2020/12/28 10:01:35;;;;;;;53.92;29.40;;;;;;;12.49;88.85;99189.84;6195221;23;20005;-68
2020/12/28 10:04:00;;;;;;;52.08;27.17;;;;;;;12.40;89.87;99194.41;6194910;23;20016;-68
2020/12/28 10:06:33;;;;;;;55.13;28.00;;;;;;;12.26;90.85;99196.09;6195203;23;20017;-67
2020/12/28 10:08:59;;;;;;;47.75;25.73;;;;;;;12.26;91.10;99198.75;6195443;23;20016;-67
2020/12/28 10:11:25;;;;;;;52.08;26.45;;;;;;;12.31;89.96;99187.56;6195024;23;20001;-68
2020/12/28 10:13:50;;;;;;;57.08;27.45;;;;;;;12.40;89.16;99189.91;6195257;23;20009;-68
2020/12/28 10:16:26;;;;;;;54.60;28.17;;;;;;;12.37;90.02;99181.50;6193555;23;20008;-67
2020/12/28 10:18:55;;;;;;;51.55;28.00;;;;;;;12.23;90.48;99169.91;6193599;23;20013;-67
2020/12/28 10:21:23;;;;;;;54.72;27.77;;;;;;;12.36;90.90;99169.25;6195247;23;20005;-69
2020/12/28 10:23:48;;;;;;;59.28;29.83;;;;;;;12.55;90.37;99158.03;6195357;23;20016;-68
2020/12/28 10:26:25;;;;;;;59.40;30.15;;;;;;;12.73;89.30;99153.09;6194875;23;20021;-67
2020/12/28 10:28:52;;;;;;;55.92;27.67;;;;;;;12.71;90.19;99149.00;6195139;23;20009;-67
2020/12/28 10:31:19;;;;;;;58.70;28.75;;;;;;;12.81;88.67;99138.88;6194938;23;20302;-67
2020/12/28 10:33:46;;;;;;;54.58;28.83;;;;;;;12.97;89.17;99143.09;6195265;23;20067;-67
2020/12/28 10:36:23;;;;;;;60.72;28.08;;;;;;;12.87;87.89;99138.09;6194893;23;20008;-68
2020/12/28 10:38:51;;;;;;;58.03;28.95;;;;;;;12.79;88.79;99136.41;6194975;23;20021;-67
2020/12/28 10:41:26;;;;;;;67.20;31.02;;;;;;;12.81;89.53;99122.94;6194658;23;20060;-67
2020/12/28 10:43:51;;;;;;;51.22;25.60;;;;;;;12.47;91.45;99120.94;6195028;23;20009;-68
2020/12/28 10:46:17;;;;;;;34.58;15.85;;;;;;;12.77;90.58;99111.88;6193059;23;20064;-68
2020/12/28 10:48:43;;;;;;;27.33;13.27;;;;;;;12.67;89.89;99105.22;6195156;23;20015;-69
2020/12/28 10:51:12;;;;;;;30.10;13.55;;;;;;;12.63;90.57;99109.28;6194693;23;20007;-68
2020/12/28 10:53:38;;;;;;;27.35;13.60;;;;;;;12.61;90.74;99109.47;6194967;23;20032;-68
2020/12/28 10:56:03;;;;;;;28.20;13.25;;;;;;;12.73;89.60;99099.16;6194673;23;20001;-69
2020/12/28 10:58:29;;;;;;;25.10;12.65;;;;;;;12.87;89.92;99102.75;6194652;23;20009;-67
2020/12/28 11:00:55;;;;;;;28.23;13.30;;;;;;;12.86;90.53;99101.09;6194730;23;20001;-68
2020/12/28 11:03:20;;;;;;;29.20;12.52;;;;;;;12.86;89.66;99101.09;6194391;23;20013;-68
2020/12/28 11:05:46;;;;;;;32.80;16.33;;;;;;;12.90;88.51;99092.56;6194647;23;20008;-67
2020/12/28 11:08:12;;;;;;;34.53;15.45;;;;;;;13.11;86.61;99103.13;6194796;23;20024;-68
2020/12/28 11:10:38;;;;;;;39.67;17.83;;;;;;;13.16;86.49;99091.91;6194499;23;20001;-67
2020/12/28 11:13:03;;;;;;;32.67;15.80;;;;;;;13.10;86.71;99095.34;6194658;23;20009;-68
2020/12/28 11:15:29;;;;;;;35.10;16.20;;;;;;;13.04;87.98;99094.28;6194507;23;20345;-68